Time;durP1;ratioP1;P1;durP2;ratioP2;P2;SDS_P1;SDS_P2;PMS_P1;PMS_P2;Temp;Humidity;BMP_temperature;BMP_pressure;BME280_temperature;BME280_humidity;BME280_pressure;Samples;Min_cycle;Max_cycle;Signal;HPM_P1;HPM_P2
2021/09/05 00:00:56;;;;;;;6.25;4.10;;;15.60;60.60;;;;;;5014155;28;20028;-61
2021/09/05 00:03:22;;;;;;;5.70;3.85;;;15.60;60.80;;;;;;5014928;28;20475;-59
2021/09/05 00:05:47;;;;;;;6.35;4.00;;;15.50;60.70;;;;;;5016000;28;20073;-61
2021/09/05 00:08:13;;;;;;;4.97;3.70;;;15.50;60.20;;;;;;5015801;28;20037;-60
2021/09/05 00:10:39;;;;;;;5.65;3.72;;;15.50;59.50;;;;;;5015535;28;20026;-60
2021/09/05 00:13:04;;;;;;;5.13;3.20;;;15.40;59.30;;;;;;5013094;28;20026;-61
2021/09/05 00:15:30;;;;;;;4.97;3.92;;;15.40;59.80;;;;;;5013218;28;20508;-62
2021/09/05 00:17:56;;;;;;;5.82;3.83;;;15.40;60.40;;;;;;5012147;28;20112;-61
2021/09/05 00:20:21;;;;;;;5.07;3.45;;;15.40;60.70;;;;;;5014004;28;20029;-61
2021/09/05 00:22:48;;;;;;;6.70;4.22;;;15.40;61.40;;;;;;5015377;28;20030;-62
2021/09/05 00:25:14;;;;;;;6.43;4.13;;;15.40;61.40;;;;;;5015817;28;20032;-62
2021/09/05 00:27:40;;;;;;;6.30;4.22;;;15.40;61.60;;;;;;5015683;28;20347;-61
2021/09/05 00:30:07;;;;;;;6.32;4.40;;;15.40;61.90;;;;;;5013588;28;20029;-62
2021/09/05 00:32:33;;;;;;;5.82;3.83;;;15.30;61.70;;;;;;5013383;28;20050;-62
2021/09/05 00:34:58;;;;;;;4.97;4.00;;;15.30;61.90;;;;;;5014270;28;20109;-61
2021/09/05 00:37:24;;;;;;;5.20;3.67;;;15.20;62.00;;;;;;5023692;28;20057;-61
2021/09/05 00:39:50;;;;;;;6.03;3.78;;;15.20;61.80;;;;;;5013359;28;20848;-61
2021/09/05 00:42:26;;;;;;;5.78;3.53;;;15.10;61.80;;;;;;5015243;28;20034;-61
2021/09/05 00:44:52;;;;;;;5.72;3.65;;;15.10;61.70;;;;;;5015435;28;20022;-61
2021/09/05 00:47:17;;;;;;;6.45;4.38;;;15.10;61.90;;;;;;5013790;28;20455;-60
2021/09/05 00:49:43;;;;;;;5.97;3.97;;;15.10;61.90;;;;;;5014289;28;20030;-61
2021/09/05 00:52:09;;;;;;;5.82;4.00;;;15.10;62.00;;;;;;5013944;28;20414;-61
2021/09/05 00:54:35;;;;;;;6.70;4.20;;;15.00;61.90;;;;;;5014668;28;20026;-60
2021/09/05 00:57:01;;;;;;;5.63;3.72;;;15.10;62.00;;;;;;5014173;28;20034;-59
2021/09/05 00:59:27;;;;;;;5.80;4.03;;;15.10;61.90;;;;;;5014768;28;20029;-61
2021/09/05 01:01:53;;;;;;;6.75;3.72;;;15.10;61.90;;;;;;5012851;28;20116;-62
2021/09/05 01:04:19;;;;;;;5.70;3.45;;;15.10;61.80;;;;;;5013971;28;20037;-61
2021/09/05 01:06:44;;;;;;;6.03;4.03;;;15.10;61.70;;;;;;5014365;28;20069;-61
2021/09/05 01:09:11;;;;;;;4.93;3.60;;;15.20;61.70;;;;;;5014392;28;20474;-61
2021/09/05 01:11:37;;;;;;;5.88;4.10;;;15.20;61.90;;;;;;5012063;28;20137;-61
2021/09/05 01:14:07;;;;;;;6.07;3.78;;;15.20;62.10;;;;;;5012685;28;20113;-62
2021/09/05 01:16:38;;;;;;;5.75;3.50;;;15.20;62.00;;;;;;5014332;28;20030;-61
2021/09/05 01:19:06;;;;;;;4.60;3.42;;;15.20;62.10;;;;;;5013439;28;20444;-61
2021/09/05 01:21:33;;;;;;;5.32;3.53;;;15.30;62.30;;;;;;5013767;28;20066;-61
2021/09/05 01:23:59;;;;;;;5.43;3.10;;;15.30;62.50;;;;;;5013975;28;20172;-62
2021/09/05 01:26:27;;;;;;;3.78;3.03;;;15.30;62.00;;;;;;4999448;28;20030;-61
2021/09/05 01:28:53;;;;;;;3.60;2.42;;;15.30;61.70;;;;;;5013958;28;20068;-61
2021/09/05 01:31:20;;;;;;;3.03;2.20;;;15.30;61.20;;;;;;5013139;28;20041;-61
2021/09/05 01:33:46;;;;;;;4.18;2.70;;;15.30;60.60;;;;;;5013218;28;20025;-60
2021/09/05 01:36:12;;;;;;;3.08;2.35;;;15.30;60.40;;;;;;5013703;28;20030;-61
2021/09/05 01:38:37;;;;;;;4.00;2.38;;;15.30;60.20;;;;;;5013482;28;20052;-62
2021/09/05 01:41:03;;;;;;;2.53;2.30;;;15.30;60.00;;;;;;5013279;28;20037;-61
2021/09/05 01:43:28;;;;;;;3.13;2.20;;;15.30;59.80;;;;;;5013600;28;20037;-62
2021/09/05 01:45:54;;;;;;;3.53;2.35;;;15.30;60.00;;;;;;5013085;28;20029;-61
2021/09/05 01:48:20;;;;;;;2.78;2.17;;;15.20;59.80;;;;;;5012128;28;20064;-61
2021/09/05 01:50:45;;;;;;;6.38;2.58;;;15.20;59.80;;;;;;5012590;28;20030;-61
2021/09/05 01:53:11;;;;;;;3.97;2.80;;;15.20;59.90;;;;;;5013993;28;20022;-61
2021/09/05 01:55:37;;;;;;;3.30;2.45;;;15.20;60.20;;;;;;5013295;28;20077;-61
2021/09/05 01:58:02;;;;;;;4.63;2.85;;;15.20;60.10;;;;;;5013756;28;20085;-61
2021/09/05 02:00:28;;;;;;;5.53;3.42;;;15.20;60.80;;;;;;5013490;28;20390;-61
2021/09/05 02:02:54;;;;;;;4.38;3.08;;;15.20;61.20;;;;;;5013315;28;20034;-61
2021/09/05 02:05:20;;;;;;;4.72;3.40;;;15.10;61.30;;;;;;5012775;28;20513;-61
2021/09/05 02:07:45;;;;;;;5.80;4.07;;;15.10;61.40;;;;;;5013686;28;20029;-61
2021/09/05 02:10:11;;;;;;;5.45;3.50;;;15.10;61.60;;;;;;5012929;28;20041;-61
2021/09/05 02:12:37;;;;;;;4.38;2.97;;;15.10;61.80;;;;;;5010328;28;21328;-61
2021/09/05 02:15:03;;;;;;;5.45;3.65;;;15.10;61.70;;;;;;5010845;28;20022;-61
2021/09/05 02:17:28;;;;;;;6.70;3.90;;;15.00;61.60;;;;;;5014502;28;20084;-62
2021/09/05 02:19:54;;;;;;;5.07;3.75;;;15.00;61.90;;;;;;5006518;28;20478;-61
2021/09/05 02:22:19;;;;;;;6.18;3.60;;;15.00;61.90;;;;;;5011494;28;20064;-61
2021/09/05 02:24:45;;;;;;;5.53;3.63;;;14.90;62.00;;;;;;5013882;28;20037;-61
2021/09/05 02:27:11;;;;;;;6.90;4.15;;;14.90;61.80;;;;;;5013800;28;20037;-61
2021/09/05 02:29:36;;;;;;;5.22;3.53;;;14.90;62.10;;;;;;5012298;28;20362;-61
2021/09/05 02:32:02;;;;;;;6.55;4.25;;;14.90;62.20;;;;;;5013507;28;20491;-61
2021/09/05 02:34:28;;;;;;;6.15;3.85;;;14.90;62.20;;;;;;5013755;28;20466;-61
2021/09/05 02:36:53;;;;;;;5.75;3.90;;;14.90;62.20;;;;;;5011279;28;20121;-60
2021/09/05 02:39:19;;;;;;;5.32;3.90;;;14.90;62.30;;;;;;5012516;28;20042;-61
2021/09/05 02:41:45;;;;;;;5.22;3.38;;;14.90;62.50;;;;;;5012305;28;20463;-61
2021/09/05 02:44:10;;;;;;;5.43;3.85;;;14.80;62.50;;;;;;5013422;28;20025;-61
2021/09/05 02:46:36;;;;;;;5.72;4.10;;;14.90;62.70;;;;;;5012932;28;20026;-61
2021/09/05 02:49:02;;;;;;;6.18;4.07;;;14.80;62.70;;;;;;5012290;28;20026;-61
2021/09/05 02:51:27;;;;;;;5.78;3.80;;;14.80;63.00;;;;;;5012578;28;20022;-61
2021/09/05 02:53:53;;;;;;;5.47;3.88;;;14.80;63.40;;;;;;5013073;28;20385;-61
2021/09/05 02:56:19;;;;;;;5.95;3.92;;;14.80;63.00;;;;;;5012664;28;20041;-61
2021/09/05 02:58:44;;;;;;;5.18;3.38;;;14.80;63.30;;;;;;5013468;28;20040;-61
2021/09/05 03:01:10;;;;;;;5.82;3.70;;;14.70;63.20;;;;;;4997167;28;20386;-61
2021/09/05 03:03:35;;;;;;;5.85;4.00;;;14.70;63.40;;;;;;5013532;28;20030;-61
2021/09/05 03:06:01;;;;;;;7.18;4.25;;;14.70;63.40;;;;;;5015896;28;20041;-60
2021/09/05 03:08:27;;;;;;;9.32;5.53;;;14.70;63.50;;;;;;5016074;28;20394;-61
2021/09/05 03:10:52;;;;;;;7.80;4.85;;;14.70;63.70;;;;;;5018205;28;20037;-61
2021/09/05 03:13:18;;;;;;;7.53;4.82;;;14.60;63.80;;;;;;5010336;28;20037;-60
2021/09/05 03:15:44;;;;;;;7.38;4.50;;;14.60;64.00;;;;;;5012545;28;20022;-61
2021/09/05 03:18:09;;;;;;;8.98;5.30;;;14.60;64.00;;;;;;5016798;28;20028;-61
2021/09/05 03:20:35;;;;;;;7.10;4.60;;;14.60;64.10;;;;;;5015099;28;20030;-61
2021/09/05 03:23:01;;;;;;;6.13;4.30;;;14.60;64.20;;;;;;5015668;28;20098;-61
2021/09/05 03:25:26;;;;;;;7.18;4.40;;;14.50;64.30;;;;;;5016383;28;20030;-61
2021/09/05 03:27:52;;;;;;;6.80;4.47;;;14.50;64.30;;;;;;5016597;28;20034;-61
2021/09/05 03:30:18;;;;;;;6.30;4.00;;;14.50;64.40;;;;;;5014431;28;20118;-60
2021/09/05 03:32:43;;;;;;;5.88;3.90;;;14.50;64.60;;;;;;5016378;28;20121;-60
2021/09/05 03:35:09;;;;;;;5.13;3.63;;;14.50;64.60;;;;;;5016104;28;20053;-60
2021/09/05 03:37:35;;;;;;;6.55;4.03;;;14.50;64.70;;;;;;5016500;28;20589;-61
2021/09/05 03:40:01;;;;;;;6.47;4.28;;;14.50;64.80;;;;;;5014594;28;20033;-60
2021/09/05 03:42:26;;;;;;;5.60;4.00;;;14.50;65.10;;;;;;5014892;28;20026;-61
2021/09/05 03:44:52;;;;;;;5.78;3.90;;;14.50;65.00;;;;;;5013726;28;20034;-61
2021/09/05 03:47:18;;;;;;;6.32;4.10;;;14.50;65.40;;;;;;5014743;28;20030;-61
2021/09/05 03:49:44;;;;;;;4.88;3.80;;;14.50;65.30;;;;;;5015871;28;20030;-61
2021/09/05 03:52:09;;;;;;;6.78;3.90;;;14.50;65.30;;;;;;5016323;28;20125;-61
2021/09/05 03:54:35;;;;;;;5.85;4.13;;;14.50;65.30;;;;;;5015932;28;20373;-61
2021/09/05 03:57:01;;;;;;;5.55;4.28;;;14.60;65.40;;;;;;5015360;28;20022;-61
2021/09/05 03:59:26;;;;;;;5.72;3.83;;;14.60;65.60;;;;;;5016107;28;20063;-61
2021/09/05 04:01:52;;;;;;;4.93;3.63;;;14.60;65.70;;;;;;5000827;28;20073;-61
2021/09/05 04:04:18;;;;;;;5.47;3.55;;;14.70;66.00;;;;;;5007689;28;20026;-61
2021/09/05 04:06:49;;;;;;;5.30;3.33;;;14.70;65.50;;;;;;5015462;28;20033;-61
2021/09/05 04:10:08;;;;;;;;;;;14.70;65.00;;;;;;5015977;28;20033;-61
2021/09/05 04:12:03;;;;;;;3.50;2.50;;;14.70;64.60;;;;;;5007105;28;20008;-61
2021/09/05 04:14:29;;;;;;;4.85;3.15;;;14.80;64.50;;;;;;5017752;28;20037;-61
2021/09/05 04:16:55;;;;;;;5.15;3.03;;;14.80;64.50;;;;;;5015447;28;20385;-61
2021/09/05 04:19:20;;;;;;;3.88;2.65;;;14.80;64.10;;;;;;5014900;28;20504;-61
2021/09/05 04:21:46;;;;;;;4.38;2.88;;;14.90;64.10;;;;;;5014886;28;20444;-60
2021/09/05 04:24:12;;;;;;;4.35;2.95;;;14.90;64.50;;;;;;5015275;28;20053;-61
2021/09/05 04:26:38;;;;;;;4.70;3.10;;;14.90;64.30;;;;;;5014288;28;20057;-61
2021/09/05 04:29:03;;;;;;;4.22;3.15;;;15.00;64.20;;;;;;5014165;28;20061;-61
2021/09/05 04:31:29;;;;;;;4.15;2.90;;;15.00;64.00;;;;;;5013627;28;20441;-61
2021/09/05 04:33:54;;;;;;;4.10;3.03;;;15.10;63.90;;;;;;5014795;28;20539;-61
2021/09/05 04:36:20;;;;;;;4.57;3.20;;;15.10;63.70;;;;;;5014439;28;20041;-61
2021/09/05 04:38:46;;;;;;;3.25;2.60;;;15.20;63.80;;;;;;5014588;28;20037;-61
2021/09/05 04:41:11;;;;;;;3.22;2.50;;;15.20;63.50;;;;;;5012889;28;20038;-61
2021/09/05 04:43:37;;;;;;;4.28;3.20;;;15.20;63.50;;;;;;5012515;28;20109;-62
2021/09/05 04:46:03;;;;;;;4.78;2.88;;;15.20;63.50;;;;;;5013593;28;20554;-61
2021/09/05 04:48:28;;;;;;;4.57;2.80;;;15.40;63.40;;;;;;4998767;28;20038;-61
2021/09/05 04:50:54;;;;;;;3.80;3.00;;;15.50;63.00;;;;;;5016521;28;20021;-61
2021/09/05 04:53:20;;;;;;;5.65;3.17;;;15.50;62.80;;;;;;5020269;28;20537;-60
2021/09/05 04:55:45;;;;;;;4.50;2.58;;;15.60;62.60;;;;;;5013469;28;20064;-60
2021/09/05 04:58:11;;;;;;;3.78;2.80;;;15.60;62.30;;;;;;5014677;28;20076;-61
2021/09/05 05:00:36;;;;;;;3.20;2.50;;;15.60;62.20;;;;;;5013247;28;20045;-60
2021/09/05 05:03:02;;;;;;;3.70;2.72;;;15.60;62.30;;;;;;5014242;28;20390;-62
2021/09/05 05:05:28;;;;;;;5.25;3.20;;;15.60;62.30;;;;;;5013773;28;20033;-62
2021/09/05 05:07:54;;;;;;;3.90;3.15;;;15.70;62.20;;;;;;5013626;28;20033;-60
2021/09/05 05:10:23;;;;;;;4.20;2.92;;;15.80;62.10;;;;;;5016361;28;20018;-61
2021/09/05 05:12:49;;;;;;;4.57;2.92;;;15.80;61.60;;;;;;5017639;28;20028;-61
2021/09/05 05:15:14;;;;;;;4.28;2.55;;;15.90;61.50;;;;;;5011647;28;20022;-61
2021/09/05 05:17:40;;;;;;;3.42;2.55;;;15.90;61.70;;;;;;5009802;28;20026;-61
2021/09/05 05:20:07;;;;;;;3.33;2.60;;;16.00;61.80;;;;;;5013011;28;20104;-62
2021/09/05 05:22:32;;;;;;;4.50;2.97;;;16.20;61.70;;;;;;5014219;28;20112;-60
2021/09/05 05:24:58;;;;;;;5.78;3.10;;;16.40;61.10;;;;;;5012095;28;20512;-60
2021/09/05 05:27:23;;;;;;;4.97;3.20;;;16.50;61.00;;;;;;5013897;28;20121;-61
2021/09/05 05:29:49;;;;;;;4.13;2.78;;;16.50;60.80;;;;;;5011052;28;20121;-60
2021/09/05 05:32:15;;;;;;;3.42;2.72;;;16.50;60.50;;;;;;5010158;28;20461;-61
2021/09/05 05:34:41;;;;;;;4.47;3.00;;;16.50;60.40;;;;;;5013500;28;20041;-61
2021/09/05 05:37:06;;;;;;;4.72;3.47;;;16.50;60.50;;;;;;5013848;28;20041;-61
2021/09/05 05:39:32;;;;;;;4.50;3.13;;;16.50;60.50;;;;;;5013067;28;20030;-61
2021/09/05 05:41:58;;;;;;;3.72;2.80;;;16.50;60.70;;;;;;5013286;28;20026;-61
2021/09/05 05:44:23;;;;;;;4.03;2.72;;;16.60;60.40;;;;;;5012481;28;20033;-61
2021/09/05 05:46:49;;;;;;;3.65;2.97;;;16.80;60.10;;;;;;5011837;28;20026;-61
2021/09/05 05:49:15;;;;;;;4.57;3.03;;;17.00;59.80;;;;;;5007144;28;20033;-61
2021/09/05 05:51:41;;;;;;;4.70;3.00;;;17.20;59.30;;;;;;5010528;28;20385;-62
2021/09/05 05:54:06;;;;;;;5.63;3.58;;;17.30;59.10;;;;;;5013483;28;20441;-62
2021/09/05 05:56:32;;;;;;;3.70;2.30;;;17.30;58.90;;;;;;5012611;28;20527;-61
2021/09/05 05:58:58;;;;;;;3.17;2.70;;;17.30;58.80;;;;;;5020728;28;20037;-61
2021/09/05 06:01:23;;;;;;;3.95;2.83;;;17.20;58.90;;;;;;5012726;28;20026;-62
2021/09/05 06:03:49;;;;;;;3.63;2.80;;;17.20;58.80;;;;;;5012695;28;20034;-61
2021/09/05 06:06:15;;;;;;;5.30;2.70;;;17.20;59.10;;;;;;5012731;28;20482;-61
2021/09/05 06:08:41;;;;;;;3.15;2.67;;;17.20;59.20;;;;;;5013538;28;20068;-62
2021/09/05 06:11:06;;;;;;;3.58;2.50;;;17.10;59.10;;;;;;5011115;28;20029;-62
2021/09/05 06:13:32;;;;;;;2.67;2.35;;;17.10;59.10;;;;;;5010143;28;20033;-61
2021/09/05 06:15:58;;;;;;;3.10;2.30;;;17.20;59.20;;;;;;5004089;28;20457;-62
2021/09/05 06:18:24;;;;;;;2.97;2.25;;;17.20;59.00;;;;;;5012329;28;20091;-62
2021/09/05 06:20:50;;;;;;;4.10;2.70;;;17.20;59.00;;;;;;5011526;28;20034;-62
2021/09/05 06:23:16;;;;;;;4.32;2.80;;;17.30;58.80;;;;;;5013170;28;20036;-62
2021/09/05 06:25:41;;;;;;;3.50;2.50;;;17.30;58.80;;;;;;5012682;28;20476;-62
2021/09/05 06:28:07;;;;;;;2.58;2.22;;;17.30;58.40;;;;;;5013168;28;20028;-62
2021/09/05 06:30:33;;;;;;;2.78;2.40;;;17.30;58.20;;;;;;5012382;28;20492;-62
2021/09/05 06:32:58;;;;;;;2.88;2.33;;;17.40;58.30;;;;;;5013063;28;20042;-62
2021/09/05 06:35:24;;;;;;;4.03;2.60;;;17.40;58.30;;;;;;5012059;28;20118;-62
2021/09/05 06:37:50;;;;;;;3.03;2.72;;;17.40;58.10;;;;;;5015487;28;20421;-62
2021/09/05 06:40:15;;;;;;;2.90;2.33;;;17.50;57.90;;;;;;5005456;28;20030;-62
2021/09/05 06:42:41;;;;;;;1.90;1.73;;;17.50;58.10;;;;;;5014604;28;20040;-62
2021/09/05 06:45:07;;;;;;;3.13;2.10;;;17.50;57.80;;;;;;5015797;28;20026;-62
2021/09/05 06:47:32;;;;;;;2.53;2.15;;;17.50;57.50;;;;;;5015724;28;20036;-62
2021/09/05 06:49:58;;;;;;;3.13;2.30;;;17.60;57.40;;;;;;5014642;28;20025;-62
2021/09/05 06:52:24;;;;;;;2.67;2.22;;;17.60;57.30;;;;;;5015568;28;20057;-62
2021/09/05 06:54:49;;;;;;;2.17;1.80;;;17.60;57.00;;;;;;5015956;28;20104;-61
2021/09/05 06:57:15;;;;;;;2.25;1.95;;;17.60;57.00;;;;;;5016795;28;20067;-62
2021/09/05 06:59:40;;;;;;;3.35;2.40;;;17.70;57.10;;;;;;5015510;28;20080;-62
2021/09/05 07:02:06;;;;;;;3.92;2.40;;;17.70;56.90;;;;;;5011668;28;20034;-62
2021/09/05 07:04:32;;;;;;;2.75;2.17;;;17.70;56.70;;;;;;5015239;28;20437;-62
2021/09/05 07:06:58;;;;;;;1.90;1.80;;;17.80;56.70;;;;;;5015264;28;20034;-62
2021/09/05 07:09:24;;;;;;;3.97;2.20;;;17.80;56.70;;;;;;5016288;28;20056;-62
2021/09/05 07:11:50;;;;;;;2.13;1.90;;;17.80;56.70;;;;;;5012117;28;20045;-62
2021/09/05 07:14:15;;;;;;;2.40;1.98;;;17.80;56.80;;;;;;5011093;28;20026;-62
2021/09/05 07:16:41;;;;;;;3.15;2.08;;;17.80;56.50;;;;;;5015469;28;20377;-62
2021/09/05 07:19:07;;;;;;;1.80;1.70;;;17.80;56.70;;;;;;5015929;28;20030;-62
2021/09/05 07:21:32;;;;;;;2.13;1.80;;;17.90;56.60;;;;;;5014881;28;20102;-62
2021/09/05 07:23:58;;;;;;;2.78;2.03;;;17.90;56.30;;;;;;5013974;28;20051;-62
2021/09/05 07:26:23;;;;;;;2.88;2.10;;;17.90;56.90;;;;;;5014351;28;20037;-62
2021/09/05 07:28:49;;;;;;;2.58;1.92;;;17.90;56.10;;;;;;5012738;28;20178;-62
2021/09/05 07:31:15;;;;;;;2.00;1.67;;;17.90;56.00;;;;;;5013255;28;20085;-62
2021/09/05 07:33:40;;;;;;;3.05;2.10;;;17.90;55.90;;;;;;5014188;28;20026;-62
2021/09/05 07:36:07;;;;;;;1.70;1.60;;;18.00;55.90;;;;;;5013250;28;20442;-62
2021/09/05 07:38:32;;;;;;;2.17;1.83;;;18.00;55.60;;;;;;5014725;28;20030;-62
2021/09/05 07:40:58;;;;;;;1.60;1.50;;;18.00;55.50;;;;;;5013278;28;20362;-62
2021/09/05 07:43:24;;;;;;;1.90;1.70;;;18.00;55.40;;;;;;5015767;28;20395;-62
2021/09/05 07:45:49;;;;;;;2.10;1.90;;;18.00;55.10;;;;;;5012942;28;20049;-62
2021/09/05 07:48:15;;;;;;;1.70;1.60;;;18.00;55.00;;;;;;5015308;28;20424;-62
2021/09/05 07:50:41;;;;;;;1.70;1.60;;;18.00;55.20;;;;;;5013414;28;20030;-62
2021/09/05 07:53:07;;;;;;;3.65;2.30;;;18.00;55.00;;;;;;5015108;28;20034;-62
2021/09/05 07:55:32;;;;;;;1.77;1.65;;;18.00;54.50;;;;;;5015562;28;20058;-62
2021/09/05 07:57:58;;;;;;;1.48;1.38;;;18.00;54.30;;;;;;5015825;28;20022;-62
2021/09/05 08:00:24;;;;;;;2.08;1.90;;;18.00;54.40;;;;;;5005550;28;20405;-62
2021/09/05 08:02:49;;;;;;;1.58;1.48;;;18.00;54.30;;;;;;5015004;28;20085;-62
2021/09/05 08:05:15;;;;;;;2.05;1.85;;;18.00;54.30;;;;;;5014684;28;20109;-62
2021/09/05 08:07:41;;;;;;;3.55;1.75;;;18.00;54.20;;;;;;5015085;28;20140;-62
2021/09/05 08:10:07;;;;;;;1.88;1.77;;;18.00;54.00;;;;;;5015412;28;20049;-62
2021/09/05 08:12:33;;;;;;;2.00;1.80;;;18.00;53.90;;;;;;5013577;28;20062;-62
2021/09/05 08:14:58;;;;;;;1.90;1.70;;;18.00;53.70;;;;;;5011825;28;20049;-62
2021/09/05 08:17:24;;;;;;;3.90;2.88;;;17.90;53.70;;;;;;5014596;28;20022;-62
2021/09/05 08:19:50;;;;;;;4.85;3.47;;;17.90;53.60;;;;;;5013219;28;20025;-62
2021/09/05 08:22:19;;;;;;;2.88;2.28;;;18.00;53.70;;;;;;5003940;28;20032;-62
2021/09/05 08:24:45;;;;;;;2.00;1.83;;;17.90;53.50;;;;;;5012801;28;20022;-62
2021/09/05 08:27:11;;;;;;;2.70;2.00;;;17.90;53.50;;;;;;5014902;28;20381;-62
2021/09/05 08:29:37;;;;;;;2.95;1.95;;;17.90;53.60;;;;;;5003787;28;20113;-62
2021/09/05 08:32:03;;;;;;;2.80;1.83;;;17.90;53.50;;;;;;4995067;28;20046;-62
2021/09/05 08:34:33;;;;;;;1.63;1.50;;;17.90;53.50;;;;;;4995103;28;20031;-62
2021/09/05 08:37:02;;;;;;;1.58;1.48;;;17.90;53.30;;;;;;5005768;28;20057;-62
2021/09/05 08:39:28;;;;;;;1.10;1.10;;;17.90;53.20;;;;;;5013380;28;20033;-62
2021/09/05 08:41:55;;;;;;;1.30;1.10;;;17.90;53.20;;;;;;5014116;28;20088;-60
2021/09/05 08:44:22;;;;;;;1.98;1.17;;;17.90;52.80;;;;;;5014693;28;20056;-62
2021/09/05 08:46:47;;;;;;;1.08;1.00;;;17.90;52.70;;;;;;5014036;28;20037;-61
2021/09/05 08:49:17;;;;;;;1.42;1.33;;;17.90;52.60;;;;;;5013284;28;20025;-62
2021/09/05 08:51:43;;;;;;;2.13;1.30;;;17.80;52.40;;;;;;5012181;28;20024;-62
2021/09/05 08:54:09;;;;;;;1.30;1.20;;;17.80;52.30;;;;;;5013319;28;20022;-62
2021/09/05 08:56:35;;;;;;;1.75;1.45;;;17.80;52.10;;;;;;5014372;28;20421;-62
2021/09/05 08:59:01;;;;;;;2.13;1.27;;;17.80;51.90;;;;;;5013472;28;20040;-62
2021/09/05 09:01:29;;;;;;;1.20;1.10;;;17.80;52.00;;;;;;5006970;28;20045;-62
2021/09/05 09:04:06;;;;;;;0.90;0.90;;;17.80;51.90;;;;;;5014058;28;20081;-62
2021/09/05 09:06:37;;;;;;;1.08;0.98;;;17.80;51.50;;;;;;5013684;28;20512;-60
2021/09/05 09:09:04;;;;;;;;;;;17.80;51.10;;;;;;5013700;28;20034;-61
2021/09/05 09:11:49;;;;;;;1.33;1.23;;;17.70;50.70;;;;;;5022630;28;19909;-61
2021/09/05 09:14:16;;;;;;;0.80;0.80;;;17.80;50.50;;;;;;5010501;28;20073;-62
2021/09/05 09:16:42;;;;;;;0.70;0.70;;;17.80;50.50;;;;;;5013439;28;20034;-61
2021/09/05 09:19:20;;;;;;;0.80;0.80;;;17.80;49.90;;;;;;4996774;28;20069;-61
2021/09/05 09:21:54;;;;;;;1.00;1.00;;;17.80;49.90;;;;;;5052838;27;20400;-62
2021/09/05 09:24:22;;;;;;;0.93;0.93;;;17.70;49.50;;;;;;5050369;28;20036;-63
2021/09/05 09:27:03;;;;;;;0.90;0.90;;;17.80;49.00;;;;;;5048672;28;20033;-62
2021/09/05 09:29:29;;;;;;;;;;;17.70;48.90;;;;;;5039806;28;20057;-62
2021/09/05 09:32:09;;;;;;;0.80;0.80;;;17.70;49.00;;;;;;5050004;28;20272;-62
2021/09/05 09:34:43;;;;;;;0.95;0.95;;;17.70;49.20;;;;;;5049475;28;20425;-62
2021/09/05 09:37:13;;;;;;;1.38;1.27;;;17.70;49.10;;;;;;5040896;28;20492;-62
2021/09/05 09:39:50;;;;;;;0.70;0.70;;;17.70;49.00;;;;;;5049308;28;20520;-63
2021/09/05 09:42:36;;;;;;;1.00;0.95;;;17.70;48.60;;;;;;5047967;28;20428;-63
2021/09/05 09:45:22;;;;;;;1.02;0.95;;;17.70;48.60;;;;;;5044716;28;20053;-63
2021/09/05 09:47:50;;;;;;;0.93;0.90;;;17.70;48.60;;;;;;5046965;28;20076;-62
2021/09/05 09:50:22;;;;;;;0.90;0.90;;;17.70;48.40;;;;;;5047401;28;20029;-63
2021/09/05 09:52:48;;;;;;;0.90;0.85;;;17.80;48.20;;;;;;5045140;28;20112;-63
2021/09/05 09:55:14;;;;;;;0.80;0.80;;;17.70;48.00;;;;;;5045080;28;20025;-62
2021/09/05 09:57:40;;;;;;;0.82;0.82;;;17.70;48.20;;;;;;5046715;28;20035;-62
2021/09/05 10:00:08;;;;;;;0.98;0.98;;;17.70;48.40;;;;;;5045654;28;20079;-61
2021/09/05 10:02:37;;;;;;;0.60;0.60;;;17.80;48.40;;;;;;5040535;28;20029;-63
2021/09/05 10:05:03;;;;;;;1.77;1.00;;;17.80;48.30;;;;;;5048613;28;20013;-63
2021/09/05 10:07:31;;;;;;;1.02;0.93;;;17.80;48.30;;;;;;5038042;28;20026;-63
2021/09/05 10:09:59;;;;;;;1.52;1.13;;;17.80;47.80;;;;;;5044473;28;20087;-62
2021/09/05 10:12:25;;;;;;;0.95;0.90;;;17.80;47.60;;;;;;5029488;28;20030;-63
2021/09/05 10:14:53;;;;;;;1.25;1.10;;;17.80;47.50;;;;;;5025367;28;20037;-63
2021/09/05 10:17:23;;;;;;;2.22;1.17;;;17.90;47.50;;;;;;5036248;28;20034;-62
2021/09/05 10:19:52;;;;;;;0.82;0.82;;;17.90;47.20;;;;;;5028111;28;20053;-62
2021/09/05 10:22:20;;;;;;;1.15;1.00;;;17.90;47.30;;;;;;5026712;28;20497;-62
2021/09/05 10:24:51;;;;;;;1.10;1.00;;;17.80;47.20;;;;;;5013544;28;20041;-62
2021/09/05 10:27:28;;;;;;;1.10;1.10;;;17.90;47.20;;;;;;5027503;28;20029;-63
2021/09/05 10:30:12;;;;;;;0.90;0.90;;;17.90;46.90;;;;;;5026286;28;20029;-62
2021/09/05 10:32:58;;;;;;;1.10;0.75;;;17.90;46.70;;;;;;5017591;28;20088;-61
2021/09/05 10:35:46;;;;;;;0.75;0.75;;;17.90;46.70;;;;;;5013637;28;20425;-63
2021/09/05 10:38:12;;;;;;;1.08;1.08;;;17.90;46.70;;;;;;5014849;28;20032;-62
2021/09/05 10:40:45;;;;;;;1.90;1.02;;;17.90;46.90;;;;;;5015596;28;20474;-60
2021/09/05 10:43:12;;;;;;;1.27;1.00;;;18.00;46.90;;;;;;5015194;28;20029;-62
2021/09/05 10:45:40;;;;;;;0.85;0.85;;;18.00;46.80;;;;;;5012368;28;20028;-62
2021/09/05 10:48:29;;;;;;;0.93;0.88;;;18.00;46.70;;;;;;5014735;28;20021;-61
2021/09/05 10:51:11;;;;;;;1.20;1.10;;;18.10;46.70;;;;;;5011962;28;20072;-62
2021/09/05 10:53:50;;;;;;;1.20;0.93;;;18.10;46.50;;;;;;5014522;28;20033;-62
2021/09/05 10:56:27;;;;;;;0.95;0.80;;;18.10;46.30;;;;;;5015747;28;20045;-63
2021/09/05 10:58:59;;;;;;;1.23;1.10;;;18.10;46.30;;;;;;5014636;28;20025;-62
2021/09/05 11:01:27;;;;;;;;;;;18.10;45.90;;;;;;5014870;28;20084;-62
2021/09/05 11:04:24;;;;;;;2.35;1.30;;;18.10;45.60;;;;;;5012311;28;19909;-63
2021/09/05 11:07:17;;;;;;;1.27;1.13;;;18.10;46.10;;;;;;5011948;28;20037;-63
2021/09/05 11:09:44;;;;;;;0.70;0.70;;;18.20;46.90;;;;;;5008571;28;20021;-63
2021/09/05 11:12:37;;;;;;;0.80;0.80;;;18.20;46.50;;;;;;5015123;28;20037;-62
2021/09/05 11:15:15;;;;;;;0.85;0.85;;;18.20;45.90;;;;;;5007443;28;20391;-63
2021/09/05 11:17:40;;;;;;;1.10;1.00;;;18.30;45.90;;;;;;5014430;28;20022;-62
2021/09/05 11:20:12;;;;;;;0.82;0.82;;;18.30;45.70;;;;;;5009641;28;20052;-63
2021/09/05 11:22:39;;;;;;;1.08;0.73;;;18.30;45.40;;;;;;5010636;28;20064;-62
2021/09/05 11:25:21;;;;;;;1.65;1.55;;;18.40;45.30;;;;;;5012720;28;20026;-62
2021/09/05 11:27:56;;;;;;;1.58;1.10;;;18.30;44.80;;;;;;5003627;28;20409;-62
2021/09/05 11:30:23;;;;;;;1.38;1.05;;;18.40;44.80;;;;;;5010702;28;20026;-63
2021/09/05 11:32:57;;;;;;;1.10;1.00;;;18.30;44.70;;;;;;5011219;28;20022;-62
2021/09/05 11:35:23;;;;;;;1.42;1.33;;;18.40;44.50;;;;;;5007124;28;20124;-62
2021/09/05 11:37:53;;;;;;;1.15;1.05;;;18.30;44.60;;;;;;5011965;28;20033;-63
2021/09/05 11:40:20;;;;;;;9.37;1.30;;;18.30;44.50;;;;;;5009872;28;20030;-63
2021/09/05 11:42:56;;;;;;;1.17;0.90;;;18.30;44.50;;;;;;5012107;28;20032;-63
2021/09/05 11:45:26;;;;;;;2.75;1.20;;;18.30;44.40;;;;;;5012032;28;20084;-63
2021/09/05 11:48:03;;;;;;;1.48;1.10;;;18.30;44.40;;;;;;5010444;28;20025;-62
2021/09/05 11:50:30;;;;;;;1.30;1.20;;;18.30;44.30;;;;;;5011750;28;20034;-61
2021/09/05 11:52:56;;;;;;;1.98;1.30;;;18.30;44.60;;;;;;5012701;28;20017;-62
2021/09/05 11:55:22;;;;;;;1.50;1.20;;;18.30;44.90;;;;;;5011120;28;20449;-62
2021/09/05 11:58:00;;;;;;;1.90;0.80;;;18.30;44.10;;;;;;5008824;28;20394;-62
2021/09/05 12:00:29;;;;;;;1.35;1.20;;;18.30;44.00;;;;;;5007223;28;20030;-62
2021/09/05 12:02:56;;;;;;;1.63;1.50;;;18.30;44.20;;;;;;5004848;28;20038;-63
2021/09/05 12:05:22;;;;;;;1.13;1.08;;;18.30;44.10;;;;;;5004783;28;20501;-63
2021/09/05 12:07:48;;;;;;;1.30;1.20;;;18.30;44.20;;;;;;5002328;28;20442;-63
2021/09/05 12:10:17;;;;;;;0.65;0.65;;;18.30;44.10;;;;;;5010923;28;20037;-63
2021/09/05 12:12:43;;;;;;;1.30;1.20;;;18.30;44.10;;;;;;5011505;28;20494;-63
2021/09/05 12:15:18;;;;;;;2.28;1.27;;;18.30;44.10;;;;;;5007234;28;20030;-63
2021/09/05 12:17:52;;;;;;;1.75;1.13;;;18.30;44.20;;;;;;5005145;28;20026;-63
2021/09/05 12:20:22;;;;;;;1.05;1.05;;;18.30;44.40;;;;;;5010883;28;20046;-62
2021/09/05 12:22:50;;;;;;;0.85;0.85;;;18.30;44.30;;;;;;5001145;28;20030;-63
2021/09/05 12:25:31;;;;;;;0.77;0.77;;;18.30;44.30;;;;;;5008506;28;20367;-63
2021/09/05 12:28:06;;;;;;;1.55;1.00;;;18.30;44.20;;;;;;5011606;28;20063;-62
2021/09/05 12:30:40;;;;;;;1.00;0.95;;;18.30;44.30;;;;;;5010667;28;20467;-63
2021/09/05 12:33:12;;;;;;;1.90;1.23;;;18.30;44.10;;;;;;5012499;28;20079;-63
2021/09/05 12:35:52;;;;;;;2.13;1.02;;;18.30;44.20;;;;;;5011748;28;20033;-63
2021/09/05 12:38:30;;;;;;;1.75;0.90;;;18.30;44.70;;;;;;5011373;28;20393;-63
2021/09/05 12:41:04;;;;;;;1.45;1.15;;;18.30;44.90;;;;;;5010442;28;20593;-63
2021/09/05 12:43:40;;;;;;;1.25;1.15;;;18.30;45.00;;;;;;5012278;28;20492;-63
2021/09/05 12:46:07;;;;;;;3.17;2.10;;;18.30;45.10;;;;;;5010937;28;20336;-63
2021/09/05 12:48:38;;;;;;;1.48;1.35;;;18.30;44.90;;;;;;5011890;28;20072;-62
2021/09/05 12:51:15;;;;;;;1.67;1.35;;;18.30;44.90;;;;;;5010841;28;20470;-63